sensor_id;sensor_type;location;lat;lon;timestamp;P1;durP1;ratioP1;P2;durP2;ratioP2
70467;SDS011;57934;51.532;7.684;2023-07-29T00:00:41;15.48;;;9.95;;
70467;SDS011;57934;51.532;7.684;2023-07-29T00:03:09;16.00;;;10.60;;
70467;SDS011;57934;51.532;7.684;2023-07-29T00:05:38;15.00;;;10.18;;
70467;SDS011;57934;51.532;7.684;2023-07-29T00:08:05;12.95;;;9.43;;
70467;SDS011;57934;51.532;7.684;2023-07-29T00:10:32;13.13;;;9.73;;
70467;SDS011;57934;51.532;7.684;2023-07-29T00:12:59;13.85;;;9.77;;
70467;SDS011;57934;51.532;7.684;2023-07-29T00:15:25;13.95;;;9.55;;
70467;SDS011;57934;51.532;7.684;2023-07-29T00:17:51;10.05;;;8.88;;
70467;SDS011;57934;51.532;7.684;2023-07-29T00:20:17;9.82;;;8.82;;
70467;SDS011;57934;51.532;7.684;2023-07-29T00:22:43;10.40;;;9.13;;
70467;SDS011;57934;51.532;7.684;2023-07-29T00:25:09;9.77;;;8.32;;
70467;SDS011;57934;51.532;7.684;2023-07-29T00:27:35;12.93;;;9.52;;
70467;SDS011;57934;51.532;7.684;2023-07-29T00:30:01;11.30;;;9.40;;
70467;SDS011;57934;51.532;7.684;2023-07-29T00:32:29;12.18;;;8.90;;
70467;SDS011;57934;51.532;7.684;2023-07-29T00:34:55;12.88;;;8.80;;
70467;SDS011;57934;51.532;7.684;2023-07-29T00:37:21;10.57;;;8.60;;
70467;SDS011;57934;51.532;7.684;2023-07-29T00:39:47;11.13;;;9.10;;
70467;SDS011;57934;51.532;7.684;2023-07-29T00:42:13;14.98;;;9.23;;
70467;SDS011;57934;51.532;7.684;2023-07-29T00:44:45;9.85;;;8.85;;
70467;SDS011;57934;51.532;7.684;2023-07-29T00:47:11;10.32;;;9.25;;
70467;SDS011;57934;51.532;7.684;2023-07-29T00:49:41;10.82;;;9.32;;
70467;SDS011;57934;51.532;7.684;2023-07-29T00:52:09;10.75;;;9.20;;
70467;SDS011;57934;51.532;7.684;2023-07-29T00:54:39;9.77;;;8.85;;
70467;SDS011;57934;51.532;7.684;2023-07-29T00:57:09;13.25;;;9.93;;
70467;SDS011;57934;51.532;7.684;2023-07-29T00:59:39;12.07;;;10.05;;
70467;SDS011;57934;51.532;7.684;2023-07-29T01:02:06;10.50;;;9.50;;
70467;SDS011;57934;51.532;7.684;2023-07-29T01:04:33;10.60;;;9.45;;
70467;SDS011;57934;51.532;7.684;2023-07-29T01:07:17;10.18;;;8.65;;
70467;SDS011;57934;51.532;7.684;2023-07-29T01:09:58;9.70;;;8.57;;
70467;SDS011;57934;51.532;7.684;2023-07-29T01:12:35;9.43;;;8.57;;
70467;SDS011;57934;51.532;7.684;2023-07-29T01:15:11;10.25;;;9.35;;
70467;SDS011;57934;51.532;7.684;2023-07-29T01:17:43;10.05;;;8.77;;
70467;SDS011;57934;51.532;7.684;2023-07-29T01:20:14;10.90;;;9.48;;
70467;SDS011;57934;51.532;7.684;2023-07-29T01:22:41;10.07;;;8.45;;
70467;SDS011;57934;51.532;7.684;2023-07-29T01:25:08;10.23;;;8.68;;
70467;SDS011;57934;51.532;7.684;2023-07-29T01:27:34;10.23;;;9.23;;
70467;SDS011;57934;51.532;7.684;2023-07-29T01:30:00;9.70;;;8.60;;
70467;SDS011;57934;51.532;7.684;2023-07-29T01:37:47;8.82;;;7.93;;
70467;SDS011;57934;51.532;7.684;2023-07-29T01:40:15;10.45;;;8.98;;
70467;SDS011;57934;51.532;7.684;2023-07-29T01:42:42;9.52;;;8.32;;
70467;SDS011;57934;51.532;7.684;2023-07-29T01:45:10;9.68;;;8.77;;
70467;SDS011;57934;51.532;7.684;2023-07-29T01:47:36;12.18;;;8.70;;
70467;SDS011;57934;51.532;7.684;2023-07-29T01:50:06;9.95;;;8.07;;
70467;SDS011;57934;51.532;7.684;2023-07-29T01:52:33;9.55;;;8.40;;
70467;SDS011;57934;51.532;7.684;2023-07-29T01:55:00;10.27;;;9.18;;
70467;SDS011;57934;51.532;7.684;2023-07-29T01:57:27;9.65;;;8.63;;
70467;SDS011;57934;51.532;7.684;2023-07-29T01:59:53;16.10;;;9.30;;
70467;SDS011;57934;51.532;7.684;2023-07-29T02:02:19;14.10;;;9.27;;
70467;SDS011;57934;51.532;7.684;2023-07-29T02:04:45;11.55;;;8.52;;
70467;SDS011;57934;51.532;7.684;2023-07-29T02:07:17;11.77;;;8.93;;
70467;SDS011;57934;51.532;7.684;2023-07-29T02:09:45;10.25;;;9.10;;
70467;SDS011;57934;51.532;7.684;2023-07-29T02:12:11;9.38;;;8.35;;
70467;SDS011;57934;51.532;7.684;2023-07-29T02:14:38;9.23;;;8.32;;
70467;SDS011;57934;51.532;7.684;2023-07-29T02:17:04;23.20;;;9.27;;
70467;SDS011;57934;51.532;7.684;2023-07-29T02:19:30;8.88;;;8.07;;
70467;SDS011;57934;51.532;7.684;2023-07-29T02:21:56;11.85;;;9.20;;
70467;SDS011;57934;51.532;7.684;2023-07-29T02:24:22;9.55;;;8.55;;
70467;SDS011;57934;51.532;7.684;2023-07-29T02:26:48;12.80;;;8.68;;
70467;SDS011;57934;51.532;7.684;2023-07-29T02:29:14;10.02;;;8.68;;
70467;SDS011;57934;51.532;7.684;2023-07-29T02:31:40;9.23;;;8.32;;
70467;SDS011;57934;51.532;7.684;2023-07-29T02:34:06;11.15;;;8.68;;
70467;SDS011;57934;51.532;7.684;2023-07-29T02:36:32;10.00;;;8.45;;
70467;SDS011;57934;51.532;7.684;2023-07-29T02:38:58;10.43;;;8.95;;
70467;SDS011;57934;51.532;7.684;2023-07-29T02:41:25;14.85;;;8.18;;
70467;SDS011;57934;51.532;7.684;2023-07-29T02:43:52;10.02;;;8.93;;
70467;SDS011;57934;51.532;7.684;2023-07-29T02:46:18;11.38;;;8.35;;
70467;SDS011;57934;51.532;7.684;2023-07-29T02:48:44;10.68;;;8.07;;
70467;SDS011;57934;51.532;7.684;2023-07-29T02:51:10;11.23;;;8.15;;
70467;SDS011;57934;51.532;7.684;2023-07-29T02:53:36;12.63;;;8.57;;
70467;SDS011;57934;51.532;7.684;2023-07-29T02:56:03;11.30;;;8.32;;
70467;SDS011;57934;51.532;7.684;2023-07-29T02:58:30;8.50;;;7.70;;
70467;SDS011;57934;51.532;7.684;2023-07-29T03:01:02;8.98;;;7.95;;
70467;SDS011;57934;51.532;7.684;2023-07-29T03:03:30;11.02;;;7.07;;
70467;SDS011;57934;51.532;7.684;2023-07-29T03:06:01;8.95;;;7.78;;
70467;SDS011;57934;51.532;7.684;2023-07-29T03:08:32;9.30;;;7.78;;
70467;SDS011;57934;51.532;7.684;2023-07-29T03:11:04;10.68;;;7.60;;
70467;SDS011;57934;51.532;7.684;2023-07-29T03:13:31;8.65;;;7.65;;
70467;SDS011;57934;51.532;7.684;2023-07-29T03:16:07;9.68;;;7.63;;
70467;SDS011;57934;51.532;7.684;2023-07-29T03:18:35;8.43;;;6.82;;
70467;SDS011;57934;51.532;7.684;2023-07-29T03:21:02;11.63;;;7.03;;
70467;SDS011;57934;51.532;7.684;2023-07-29T03:23:29;11.40;;;7.38;;
70467;SDS011;57934;51.532;7.684;2023-07-29T03:25:56;10.68;;;7.18;;
70467;SDS011;57934;51.532;7.684;2023-07-29T03:28:25;10.32;;;7.53;;
70467;SDS011;57934;51.532;7.684;2023-07-29T03:30:53;11.10;;;7.03;;
70467;SDS011;57934;51.532;7.684;2023-07-29T03:33:20;8.02;;;7.03;;
70467;SDS011;57934;51.532;7.684;2023-07-29T03:35:46;12.60;;;7.75;;
70467;SDS011;57934;51.532;7.684;2023-07-29T03:38:13;12.20;;;7.85;;
70467;SDS011;57934;51.532;7.684;2023-07-29T03:40:39;8.05;;;7.32;;
70467;SDS011;57934;51.532;7.684;2023-07-29T03:43:08;15.23;;;7.05;;
70467;SDS011;57934;51.532;7.684;2023-07-29T03:45:34;9.73;;;7.63;;
70467;SDS011;57934;51.532;7.684;2023-07-29T03:48:01;11.48;;;7.93;;
70467;SDS011;57934;51.532;7.684;2023-07-29T03:50:29;9.32;;;8.25;;
70467;SDS011;57934;51.532;7.684;2023-07-29T03:52:55;11.68;;;8.25;;
70467;SDS011;57934;51.532;7.684;2023-07-29T03:55:22;14.43;;;8.73;;
70467;SDS011;57934;51.532;7.684;2023-07-29T03:57:48;9.88;;;8.98;;
70467;SDS011;57934;51.532;7.684;2023-07-29T04:00:15;13.82;;;9.38;;
70467;SDS011;57934;51.532;7.684;2023-07-29T04:02:47;12.18;;;9.82;;
70467;SDS011;57934;51.532;7.684;2023-07-29T04:05:14;11.50;;;10.30;;
70467;SDS011;57934;51.532;7.684;2023-07-29T04:07:40;17.42;;;10.43;;
70467;SDS011;57934;51.532;7.684;2023-07-29T04:10:06;14.43;;;10.80;;
70467;SDS011;57934;51.532;7.684;2023-07-29T04:12:33;14.43;;;10.80;;
70467;SDS011;57934;51.532;7.684;2023-07-29T04:15:00;12.38;;;10.48;;
70467;SDS011;57934;51.532;7.684;2023-07-29T04:17:26;12.07;;;10.77;;
70467;SDS011;57934;51.532;7.684;2023-07-29T04:19:52;12.80;;;11.13;;
70467;SDS011;57934;51.532;7.684;2023-07-29T04:22:20;12.07;;;11.02;;
70467;SDS011;57934;51.532;7.684;2023-07-29T04:24:47;14.25;;;11.25;;
70467;SDS011;57934;51.532;7.684;2023-07-29T04:27:13;14.82;;;11.50;;
70467;SDS011;57934;51.532;7.684;2023-07-29T04:29:39;14.50;;;11.65;;
70467;SDS011;57934;51.532;7.684;2023-07-29T04:32:05;13.77;;;11.15;;
70467;SDS011;57934;51.532;7.684;2023-07-29T04:34:31;13.10;;;11.77;;
70467;SDS011;57934;51.532;7.684;2023-07-29T04:36:57;12.73;;;11.02;;
70467;SDS011;57934;51.532;7.684;2023-07-29T04:39:24;16.13;;;11.07;;
70467;SDS011;57934;51.532;7.684;2023-07-29T04:41:50;11.70;;;10.55;;
70467;SDS011;57934;51.532;7.684;2023-07-29T04:44:16;15.63;;;11.77;;
70467;SDS011;57934;51.532;7.684;2023-07-29T04:46:43;12.70;;;11.38;;
70467;SDS011;57934;51.532;7.684;2023-07-29T04:49:10;12.93;;;11.65;;
70467;SDS011;57934;51.532;7.684;2023-07-29T04:51:37;12.40;;;11.05;;
70467;SDS011;57934;51.532;7.684;2023-07-29T04:54:03;11.48;;;10.55;;
70467;SDS011;57934;51.532;7.684;2023-07-29T04:56:30;11.43;;;10.43;;
70467;SDS011;57934;51.532;7.684;2023-07-29T04:58:56;11.57;;;10.43;;
70467;SDS011;57934;51.532;7.684;2023-07-29T05:01:22;13.30;;;11.27;;
70467;SDS011;57934;51.532;7.684;2023-07-29T05:03:48;11.80;;;10.70;;
70467;SDS011;57934;51.532;7.684;2023-07-29T05:06:14;11.93;;;10.93;;
70467;SDS011;57934;51.532;7.684;2023-07-29T05:08:40;11.30;;;10.20;;
70467;SDS011;57934;51.532;7.684;2023-07-29T05:11:07;11.13;;;9.63;;
70467;SDS011;57934;51.532;7.684;2023-07-29T05:13:33;11.77;;;10.27;;
70467;SDS011;57934;51.532;7.684;2023-07-29T05:16:00;12.32;;;9.93;;
70467;SDS011;57934;51.532;7.684;2023-07-29T05:18:26;10.77;;;9.75;;
70467;SDS011;57934;51.532;7.684;2023-07-29T05:20:52;11.23;;;10.32;;
70467;SDS011;57934;51.532;7.684;2023-07-29T05:23:18;12.13;;;10.38;;
70467;SDS011;57934;51.532;7.684;2023-07-29T05:25:44;11.55;;;10.02;;
70467;SDS011;57934;51.532;7.684;2023-07-29T05:28:11;11.75;;;10.75;;
70467;SDS011;57934;51.532;7.684;2023-07-29T05:30:37;11.75;;;9.93;;
70467;SDS011;57934;51.532;7.684;2023-07-29T05:33:06;11.20;;;10.18;;
70467;SDS011;57934;51.532;7.684;2023-07-29T05:35:35;10.98;;;9.88;;
70467;SDS011;57934;51.532;7.684;2023-07-29T05:38:01;15.32;;;10.25;;
70467;SDS011;57934;51.532;7.684;2023-07-29T05:40:29;15.52;;;10.98;;
70467;SDS011;57934;51.532;7.684;2023-07-29T05:42:55;12.23;;;11.05;;
70467;SDS011;57934;51.532;7.684;2023-07-29T05:45:21;11.60;;;10.50;;
70467;SDS011;57934;51.532;7.684;2023-07-29T05:47:48;14.43;;;10.90;;
70467;SDS011;57934;51.532;7.684;2023-07-29T05:50:15;12.15;;;11.05;;
70467;SDS011;57934;51.532;7.684;2023-07-29T05:52:41;12.02;;;10.93;;
70467;SDS011;57934;51.532;7.684;2023-07-29T05:55:07;12.25;;;10.88;;
70467;SDS011;57934;51.532;7.684;2023-07-29T05:57:34;12.77;;;11.25;;
70467;SDS011;57934;51.532;7.684;2023-07-29T05:59:59;12.38;;;11.02;;
70467;SDS011;57934;51.532;7.684;2023-07-29T06:02:26;12.57;;;11.30;;
70467;SDS011;57934;51.532;7.684;2023-07-29T06:04:52;13.20;;;11.90;;
70467;SDS011;57934;51.532;7.684;2023-07-29T06:07:18;13.07;;;11.82;;
70467;SDS011;57934;51.532;7.684;2023-07-29T06:09:45;13.32;;;11.90;;
70467;SDS011;57934;51.532;7.684;2023-07-29T06:12:11;13.52;;;12.10;;
70467;SDS011;57934;51.532;7.684;2023-07-29T06:14:37;14.18;;;12.75;;
70467;SDS011;57934;51.532;7.684;2023-07-29T06:17:03;13.68;;;12.38;;
70467;SDS011;57934;51.532;7.684;2023-07-29T06:19:30;16.65;;;13.38;;
70467;SDS011;57934;51.532;7.684;2023-07-29T06:21:56;16.33;;;13.32;;
70467;SDS011;57934;51.532;7.684;2023-07-29T06:24:22;15.15;;;13.55;;
70467;SDS011;57934;51.532;7.684;2023-07-29T06:26:48;13.68;;;12.38;;
70467;SDS011;57934;51.532;7.684;2023-07-29T06:29:14;13.68;;;12.48;;
70467;SDS011;57934;51.532;7.684;2023-07-29T06:31:40;15.27;;;12.40;;
70467;SDS011;57934;51.532;7.684;2023-07-29T06:34:06;15.32;;;12.57;;
70467;SDS011;57934;51.532;7.684;2023-07-29T06:36:32;13.65;;;12.25;;
70467;SDS011;57934;51.532;7.684;2023-07-29T06:38:58;14.52;;;13.13;;
70467;SDS011;57934;51.532;7.684;2023-07-29T06:41:24;14.45;;;12.93;;
70467;SDS011;57934;51.532;7.684;2023-07-29T06:43:50;15.77;;;13.35;;
70467;SDS011;57934;51.532;7.684;2023-07-29T06:46:16;15.05;;;13.40;;
70467;SDS011;57934;51.532;7.684;2023-07-29T06:48:43;14.60;;;13.10;;
70467;SDS011;57934;51.532;7.684;2023-07-29T06:51:09;15.13;;;13.70;;
70467;SDS011;57934;51.532;7.684;2023-07-29T06:53:35;14.65;;;13.25;;
70467;SDS011;57934;51.532;7.684;2023-07-29T06:56:01;15.48;;;13.80;;
70467;SDS011;57934;51.532;7.684;2023-07-29T06:58:27;16.17;;;14.10;;
70467;SDS011;57934;51.532;7.684;2023-07-29T07:00:53;17.67;;;14.15;;
70467;SDS011;57934;51.532;7.684;2023-07-29T07:03:19;14.73;;;13.23;;
70467;SDS011;57934;51.532;7.684;2023-07-29T07:05:45;13.80;;;12.50;;
70467;SDS011;57934;51.532;7.684;2023-07-29T07:08:11;11.70;;;9.25;;
70467;SDS011;57934;51.532;7.684;2023-07-29T07:10:37;9.38;;;8.48;;
70467;SDS011;57934;51.532;7.684;2023-07-29T07:13:05;9.18;;;7.55;;
70467;SDS011;57934;51.532;7.684;2023-07-29T07:15:31;6.93;;;6.07;;
70467;SDS011;57934;51.532;7.684;2023-07-29T07:17:58;7.47;;;4.70;;
70467;SDS011;57934;51.532;7.684;2023-07-29T07:20:24;4.68;;;4.28;;
70467;SDS011;57934;51.532;7.684;2023-07-29T07:22:50;10.00;;;4.45;;
70467;SDS011;57934;51.532;7.684;2023-07-29T07:25:16;3.97;;;3.67;;
70467;SDS011;57934;51.532;7.684;2023-07-29T07:27:42;4.10;;;3.42;;
70467;SDS011;57934;51.532;7.684;2023-07-29T07:30:08;3.38;;;3.08;;
70467;SDS011;57934;51.532;7.684;2023-07-29T07:32:35;4.18;;;3.42;;
70467;SDS011;57934;51.532;7.684;2023-07-29T07:35:02;4.28;;;3.40;;
70467;SDS011;57934;51.532;7.684;2023-07-29T07:37:28;7.15;;;3.55;;
70467;SDS011;57934;51.532;7.684;2023-07-29T07:39:54;4.72;;;4.03;;
70467;SDS011;57934;51.532;7.684;2023-07-29T07:42:20;5.38;;;3.60;;
70467;SDS011;57934;51.532;7.684;2023-07-29T07:44:46;3.40;;;3.20;;
70467;SDS011;57934;51.532;7.684;2023-07-29T07:47:12;4.80;;;2.90;;
70467;SDS011;57934;51.532;7.684;2023-07-29T07:49:38;3.80;;;3.50;;
70467;SDS011;57934;51.532;7.684;2023-07-29T07:52:06;4.53;;;2.63;;
70467;SDS011;57934;51.532;7.684;2023-07-29T07:54:32;3.17;;;2.60;;
70467;SDS011;57934;51.532;7.684;2023-07-29T07:56:58;2.85;;;1.85;;
70467;SDS011;57934;51.532;7.684;2023-07-29T07:59:24;2.00;;;1.90;;
70467;SDS011;57934;51.532;7.684;2023-07-29T08:01:50;2.28;;;1.80;;
70467;SDS011;57934;51.532;7.684;2023-07-29T08:04:18;2.90;;;1.70;;
70467;SDS011;57934;51.532;7.684;2023-07-29T08:06:44;1.75;;;1.65;;
70467;SDS011;57934;51.532;7.684;2023-07-29T08:09:10;1.70;;;1.60;;
70467;SDS011;57934;51.532;7.684;2023-07-29T08:11:36;2.42;;;1.35;;
70467;SDS011;57934;51.532;7.684;2023-07-29T08:14:02;3.85;;;1.35;;
70467;SDS011;57934;51.532;7.684;2023-07-29T08:16:28;3.90;;;1.40;;
70467;SDS011;57934;51.532;7.684;2023-07-29T08:22:42;6.40;;;1.60;;
70467;SDS011;57934;51.532;7.684;2023-07-29T08:25:08;2.75;;;1.30;;
70467;SDS011;57934;51.532;7.684;2023-07-29T08:27:34;2.00;;;1.45;;
70467;SDS011;57934;51.532;7.684;2023-07-29T08:30:00;2.03;;;1.20;;
70467;SDS011;57934;51.532;7.684;2023-07-29T08:32:26;1.60;;;1.30;;
70467;SDS011;57934;51.532;7.684;2023-07-29T08:34:53;1.65;;;1.42;;
70467;SDS011;57934;51.532;7.684;2023-07-29T08:37:19;3.25;;;1.50;;
70467;SDS011;57934;51.532;7.684;2023-07-29T08:39:45;1.40;;;1.20;;
70467;SDS011;57934;51.532;7.684;2023-07-29T08:42:13;1.42;;;1.33;;
70467;SDS011;57934;51.532;7.684;2023-07-29T08:44:44;2.10;;;1.30;;
70467;SDS011;57934;51.532;7.684;2023-07-29T08:47:11;1.55;;;1.45;;
70467;SDS011;57934;51.532;7.684;2023-07-29T08:49:40;1.48;;;1.27;;
70467;SDS011;57934;51.532;7.684;2023-07-29T08:52:08;1.48;;;1.38;;
70467;SDS011;57934;51.532;7.684;2023-07-29T08:54:35;3.22;;;1.23;;
70467;SDS011;57934;51.532;7.684;2023-07-29T08:57:01;1.17;;;0.90;;
70467;SDS011;57934;51.532;7.684;2023-07-29T08:59:28;1.00;;;1.00;;
70467;SDS011;57934;51.532;7.684;2023-07-29T09:01:54;1.23;;;1.00;;
70467;SDS011;57934;51.532;7.684;2023-07-29T09:04:23;1.83;;;1.20;;
70467;SDS011;57934;51.532;7.684;2023-07-29T09:06:50;1.13;;;0.88;;
70467;SDS011;57934;51.532;7.684;2023-07-29T09:09:18;1.95;;;0.95;;
70467;SDS011;57934;51.532;7.684;2023-07-29T09:11:44;1.30;;;0.82;;
70467;SDS011;57934;51.532;7.684;2023-07-29T09:14:10;2.90;;;1.13;;
70467;SDS011;57934;51.532;7.684;2023-07-29T09:16:37;2.60;;;1.10;;
70467;SDS011;57934;51.532;7.684;2023-07-29T09:19:04;1.80;;;0.93;;
70467;SDS011;57934;51.532;7.684;2023-07-29T09:21:30;1.30;;;0.88;;
70467;SDS011;57934;51.532;7.684;2023-07-29T09:24:02;1.25;;;1.13;;
70467;SDS011;57934;51.532;7.684;2023-07-29T09:26:29;1.15;;;0.90;;
70467;SDS011;57934;51.532;7.684;2023-07-29T09:28:58;1.23;;;0.88;;
70467;SDS011;57934;51.532;7.684;2023-07-29T09:31:26;2.15;;;0.73;;
70467;SDS011;57934;51.532;7.684;2023-07-29T09:33:57;1.00;;;0.90;;
70467;SDS011;57934;51.532;7.684;2023-07-29T09:36:24;0.80;;;0.77;;
70467;SDS011;57934;51.532;7.684;2023-07-29T09:38:54;1.50;;;1.23;;
70467;SDS011;57934;51.532;7.684;2023-07-29T09:41:22;2.05;;;0.82;;
70467;SDS011;57934;51.532;7.684;2023-07-29T09:43:59;3.78;;;0.98;;
70467;SDS011;57934;51.532;7.684;2023-07-29T09:46:36;0.95;;;0.90;;
70467;SDS011;57934;51.532;7.684;2023-07-29T09:49:04;2.08;;;1.08;;
70467;SDS011;57934;51.532;7.684;2023-07-29T09:51:31;1.00;;;0.90;;
70467;SDS011;57934;51.532;7.684;2023-07-29T09:54:03;0.95;;;0.90;;
70467;SDS011;57934;51.532;7.684;2023-07-29T09:56:29;0.75;;;0.75;;
70467;SDS011;57934;51.532;7.684;2023-07-29T09:58:56;1.00;;;0.90;;
70467;SDS011;57934;51.532;7.684;2023-07-29T10:01:26;2.38;;;0.73;;
70467;SDS011;57934;51.532;7.684;2023-07-29T10:03:53;2.10;;;1.00;;
70467;SDS011;57934;51.532;7.684;2023-07-29T10:06:21;1.13;;;1.05;;
70467;SDS011;57934;51.532;7.684;2023-07-29T10:08:48;1.10;;;1.00;;
70467;SDS011;57934;51.532;7.684;2023-07-29T10:11:15;1.40;;;0.93;;
70467;SDS011;57934;51.532;7.684;2023-07-29T10:13:42;1.10;;;1.00;;
70467;SDS011;57934;51.532;7.684;2023-07-29T10:16:08;2.00;;;1.08;;
70467;SDS011;57934;51.532;7.684;2023-07-29T10:18:35;2.35;;;1.00;;
70467;SDS011;57934;51.532;7.684;2023-07-29T10:21:01;1.08;;;1.08;;
70467;SDS011;57934;51.532;7.684;2023-07-29T10:23:31;3.80;;;1.38;;
70467;SDS011;57934;51.532;7.684;2023-07-29T10:26:04;0.80;;;0.73;;
70467;SDS011;57934;51.532;7.684;2023-07-29T10:28:32;1.75;;;0.70;;
70467;SDS011;57934;51.532;7.684;2023-07-29T10:31:00;1.63;;;0.90;;
70467;SDS011;57934;51.532;7.684;2023-07-29T10:33:26;1.10;;;1.00;;
70467;SDS011;57934;51.532;7.684;2023-07-29T10:35:53;2.50;;;1.08;;
70467;SDS011;57934;51.532;7.684;2023-07-29T10:38:23;2.33;;;0.90;;
70467;SDS011;57934;51.532;7.684;2023-07-29T10:40:57;1.13;;;1.00;;
70467;SDS011;57934;51.532;7.684;2023-07-29T10:45:52;1.83;;;0.95;;
70467;SDS011;57934;51.532;7.684;2023-07-29T10:53:48;1.40;;;1.02;;
70467;SDS011;57934;51.532;7.684;2023-07-29T10:56:24;1.33;;;1.00;;
70467;SDS011;57934;51.532;7.684;2023-07-29T10:58:58;1.00;;;1.00;;
70467;SDS011;57934;51.532;7.684;2023-07-29T11:01:29;1.45;;;1.35;;
70467;SDS011;57934;51.532;7.684;2023-07-29T11:04:01;1.50;;;1.40;;
70467;SDS011;57934;51.532;7.684;2023-07-29T11:14:59;4.43;;;1.42;;
70467;SDS011;57934;51.532;7.684;2023-07-29T11:17:28;2.55;;;1.30;;
70467;SDS011;57934;51.532;7.684;2023-07-29T11:19:59;1.30;;;1.20;;
70467;SDS011;57934;51.532;7.684;2023-07-29T11:22:26;1.20;;;1.20;;
70467;SDS011;57934;51.532;7.684;2023-07-29T11:24:54;1.65;;;1.30;;
70467;SDS011;57934;51.532;7.684;2023-07-29T11:27:20;2.47;;;1.15;;
70467;SDS011;57934;51.532;7.684;2023-07-29T11:29:46;0.90;;;0.90;;
70467;SDS011;57934;51.532;7.684;2023-07-29T11:32:12;1.30;;;1.20;;
70467;SDS011;57934;51.532;7.684;2023-07-29T11:34:40;2.35;;;1.25;;
70467;SDS011;57934;51.532;7.684;2023-07-29T11:37:08;0.70;;;0.70;;
70467;SDS011;57934;51.532;7.684;2023-07-29T11:39:44;1.23;;;1.10;;
70467;SDS011;57934;51.532;7.684;2023-07-29T11:42:11;1.42;;;1.20;;
70467;SDS011;57934;51.532;7.684;2023-07-29T11:44:38;0.98;;;0.98;;
70467;SDS011;57934;51.532;7.684;2023-07-29T11:47:07;1.10;;;1.10;;
70467;SDS011;57934;51.532;7.684;2023-07-29T11:49:34;1.30;;;1.00;;
70467;SDS011;57934;51.532;7.684;2023-07-29T11:52:02;2.95;;;1.30;;
70467;SDS011;57934;51.532;7.684;2023-07-29T11:54:29;1.27;;;1.08;;
70467;SDS011;57934;51.532;7.684;2023-07-29T11:56:55;1.48;;;1.33;;
70467;SDS011;57934;51.532;7.684;2023-07-29T11:59:21;1.40;;;1.27;;
70467;SDS011;57934;51.532;7.684;2023-07-29T12:01:48;1.58;;;1.48;;
70467;SDS011;57934;51.532;7.684;2023-07-29T12:04:14;1.30;;;1.20;;
70467;SDS011;57934;51.532;7.684;2023-07-29T12:06:40;2.55;;;1.42;;
70467;SDS011;57934;51.532;7.684;2023-07-29T12:09:07;2.67;;;1.48;;
70467;SDS011;57934;51.532;7.684;2023-07-29T12:11:34;1.90;;;1.42;;
70467;SDS011;57934;51.532;7.684;2023-07-29T12:14:01;3.78;;;1.48;;
70467;SDS011;57934;51.532;7.684;2023-07-29T12:16:27;2.03;;;1.45;;
70467;SDS011;57934;51.532;7.684;2023-07-29T12:19:00;1.60;;;1.42;;
70467;SDS011;57934;51.532;7.684;2023-07-29T12:21:26;2.28;;;1.70;;
70467;SDS011;57934;51.532;7.684;2023-07-29T12:23:52;3.03;;;1.38;;
70467;SDS011;57934;51.532;7.684;2023-07-29T12:26:18;3.35;;;1.40;;
70467;SDS011;57934;51.532;7.684;2023-07-29T12:28:47;2.53;;;1.40;;
70467;SDS011;57934;51.532;7.684;2023-07-29T12:31:13;2.47;;;1.20;;
70467;SDS011;57934;51.532;7.684;2023-07-29T12:33:39;1.20;;;1.20;;
70467;SDS011;57934;51.532;7.684;2023-07-29T12:36:07;1.10;;;1.00;;
70467;SDS011;57934;51.532;7.684;2023-07-29T12:38:33;1.00;;;1.00;;
70467;SDS011;57934;51.532;7.684;2023-07-29T12:41:01;4.07;;;1.40;;
70467;SDS011;57934;51.532;7.684;2023-07-29T12:43:27;3.47;;;1.30;;
70467;SDS011;57934;51.532;7.684;2023-07-29T12:45:53;2.05;;;0.82;;
70467;SDS011;57934;51.532;7.684;2023-07-29T12:48:20;1.52;;;1.42;;
70467;SDS011;57934;51.532;7.684;2023-07-29T12:50:46;1.33;;;1.17;;
70467;SDS011;57934;51.532;7.684;2023-07-29T12:53:13;2.38;;;1.40;;
70467;SDS011;57934;51.532;7.684;2023-07-29T12:55:39;2.22;;;1.10;;
70467;SDS011;57934;51.532;7.684;2023-07-29T12:58:06;1.45;;;1.33;;
70467;SDS011;57934;51.532;7.684;2023-07-29T13:00:32;1.40;;;1.17;;
70467;SDS011;57934;51.532;7.684;2023-07-29T13:02:58;2.90;;;1.50;;
70467;SDS011;57934;51.532;7.684;2023-07-29T13:05:24;1.67;;;1.52;;
70467;SDS011;57934;51.532;7.684;2023-07-29T13:07:50;5.82;;;1.20;;
70467;SDS011;57934;51.532;7.684;2023-07-29T13:10:16;1.70;;;1.60;;
70467;SDS011;57934;51.532;7.684;2023-07-29T13:12:42;1.33;;;1.23;;
70467;SDS011;57934;51.532;7.684;2023-07-29T13:15:09;2.10;;;1.23;;
70467;SDS011;57934;51.532;7.684;2023-07-29T13:17:35;1.70;;;1.42;;
70467;SDS011;57934;51.532;7.684;2023-07-29T13:20:03;1.50;;;1.10;;
70467;SDS011;57934;51.532;7.684;2023-07-29T13:22:29;1.40;;;1.30;;
70467;SDS011;57934;51.532;7.684;2023-07-29T13:24:55;1.27;;;1.17;;
70467;SDS011;57934;51.532;7.684;2023-07-29T13:27:22;1.42;;;1.30;;
70467;SDS011;57934;51.532;7.684;2023-07-29T13:29:50;1.33;;;1.27;;
70467;SDS011;57934;51.532;7.684;2023-07-29T13:32:16;1.45;;;1.20;;
70467;SDS011;57934;51.532;7.684;2023-07-29T13:34:42;2.00;;;1.20;;
70467;SDS011;57934;51.532;7.684;2023-07-29T13:37:08;3.08;;;1.50;;
70467;SDS011;57934;51.532;7.684;2023-07-29T13:39:34;3.33;;;1.58;;
70467;SDS011;57934;51.532;7.684;2023-07-29T13:42:01;1.20;;;1.17;;
70467;SDS011;57934;51.532;7.684;2023-07-29T13:44:27;1.63;;;1.52;;
70467;SDS011;57934;51.532;7.684;2023-07-29T13:46:53;2.28;;;1.50;;
70467;SDS011;57934;51.532;7.684;2023-07-29T13:49:19;3.17;;;1.55;;
70467;SDS011;57934;51.532;7.684;2023-07-29T13:51:51;2.13;;;1.30;;
70467;SDS011;57934;51.532;7.684;2023-07-29T13:54:17;1.98;;;1.20;;
70467;SDS011;57934;51.532;7.684;2023-07-29T13:56:43;1.25;;;1.20;;
70467;SDS011;57934;51.532;7.684;2023-07-29T13:59:09;1.60;;;1.35;;
70467;SDS011;57934;51.532;7.684;2023-07-29T14:01:35;1.80;;;1.70;;
70467;SDS011;57934;51.532;7.684;2023-07-29T14:04:01;1.60;;;1.50;;
70467;SDS011;57934;51.532;7.684;2023-07-29T14:06:27;3.40;;;1.60;;
70467;SDS011;57934;51.532;7.684;2023-07-29T14:08:55;2.35;;;1.65;;
70467;SDS011;57934;51.532;7.684;2023-07-29T14:11:21;1.60;;;1.50;;
70467;SDS011;57934;51.532;7.684;2023-07-29T14:13:47;3.13;;;1.58;;
70467;SDS011;57934;51.532;7.684;2023-07-29T14:16:13;3.15;;;1.90;;
70467;SDS011;57934;51.532;7.684;2023-07-29T14:18:39;2.22;;;1.70;;
70467;SDS011;57934;51.532;7.684;2023-07-29T14:21:05;4.13;;;1.60;;
70467;SDS011;57934;51.532;7.684;2023-07-29T14:23:31;2.08;;;1.55;;
70467;SDS011;57934;51.532;7.684;2023-07-29T14:25:58;6.10;;;1.77;;
70467;SDS011;57934;51.532;7.684;2023-07-29T14:28:24;1.85;;;1.75;;
70467;SDS011;57934;51.532;7.684;2023-07-29T14:30:50;3.20;;;1.85;;
70467;SDS011;57934;51.532;7.684;2023-07-29T14:33:16;1.60;;;1.42;;
70467;SDS011;57934;51.532;7.684;2023-07-29T14:35:42;2.00;;;1.90;;
70467;SDS011;57934;51.532;7.684;2023-07-29T14:38:08;3.08;;;2.05;;
70467;SDS011;57934;51.532;7.684;2023-07-29T14:40:34;1.83;;;1.70;;
70467;SDS011;57934;51.532;7.684;2023-07-29T14:43:00;2.28;;;1.65;;
70467;SDS011;57934;51.532;7.684;2023-07-29T14:45:26;2.70;;;1.92;;
70467;SDS011;57934;51.532;7.684;2023-07-29T14:47:53;4.35;;;1.85;;
70467;SDS011;57934;51.532;7.684;2023-07-29T14:50:19;2.38;;;2.17;;
70467;SDS011;57934;51.532;7.684;2023-07-29T14:52:45;3.78;;;2.22;;
70467;SDS011;57934;51.532;7.684;2023-07-29T14:55:11;3.90;;;2.22;;
70467;SDS011;57934;51.532;7.684;2023-07-29T14:57:37;4.65;;;2.78;;
70467;SDS011;57934;51.532;7.684;2023-07-29T15:00:03;3.40;;;2.53;;
70467;SDS011;57934;51.532;7.684;2023-07-29T15:02:30;4.90;;;2.92;;
70467;SDS011;57934;51.532;7.684;2023-07-29T15:04:57;4.75;;;3.05;;